Huvudsida
METAR-TAF:

METAR-TAF

Flygplatser :

Kansas City International Airport

Kansas City, Missouri, USA

latitud: 39-17-50N, longitud: 094-43-50W, höjd: 312 m

Aktuellt väderrapport

Denna rapport gjordes för 11 minuter sedan, klockan 00:53 UTC
Vind 8 kt från nordväst
Temperatur 28°C
Fuktighet 58%
Tryck 1015 hPa
Sikt: 16.1 km
Klar himmel

METAR: KMCI 220053Z 32008KT 10SM CLR 28/19 A2997 RMK AO2 SLP137 T02780189

Tid: 20:04 (01:04 UTC)

Väderprognos

Denna rapport gjordes för 1 timme och 44 minuter sedan, klockan 23:20 UTC
Prognos gäller från 22 kl. 00 UTC till 22 kl. 24 UTC
Vind 7 kt från nord
Sikt: 10 km
Få moln på en höjd av 20000 ft

TAF: KMCI 212320Z 2200/2224 36007KT P6SM FEW200

Aktuella väderrapporter och prognoser från 4000 flygplatser (METAR- och TAF-rapporter).

De tillgängliga stationerna syns som gula och röda prickar på kartan.

För musen över prickarna för att se namnen på stationerna.

Klicka sedan för att få väderrapporter och prognoser.

För att ändra kartan: Klicka på de gröna knapparna med ett svart kors på för att zooma in; den gröna knappen med ett streck på för att zooma ut; eller på de gröna pilarna för angränsande kartor.


METAR-TAF: